Time;durP1;ratioP1;P1;durP2;ratioP2;P2;SDS_P1;SDS_P2;PMS_P1;PMS_P2;Temp;Humidity;BMP_temperature;BMP_pressure;BME280_temperature;BME280_humidity;BME280_pressure;Samples;Min_cycle;Max_cycle;Signal;HPM_P1;HPM_P2
2021/07/21 00:02:03;;;;;;;28.45;14.02;;;;;;;13.55;83.72;102425.78;4992880;28;20476;-73
2021/07/21 00:04:28;;;;;;;30.75;14.57;;;;;;;13.50;84.03;102428.81;4992067;28;20625;-73
2021/07/21 00:06:55;;;;;;;38.33;16.98;;;;;;;13.50;84.68;102426.16;4992736;28;20470;-73
2021/07/21 00:09:21;;;;;;;26.98;14.35;;;;;;;13.48;84.67;102432.59;4992074;28;20035;-73
2021/07/21 00:14:30;;;;;;;35.17;15.05;;;;;;;13.45;84.75;102422.13;4996246;28;20402;-74
2021/07/21 00:16:58;;;;;;;27.42;14.35;;;;;;;13.43;84.99;102429.44;4996669;28;20031;-73
2021/07/21 00:22:08;;;;;;;34.33;16.05;;;;;;;13.38;85.11;102435.97;4996870;28;20049;-73
2021/07/21 00:24:34;;;;;;;28.85;14.88;;;;;;;13.34;84.50;102431.81;4995843;28;20040;-73
2021/07/21 00:27:00;;;;;;;31.40;15.18;;;;;;;13.34;84.88;102429.16;4996552;28;20034;-73
2021/07/21 00:29:25;;;;;;;33.30;15.60;;;;;;;13.30;84.94;102422.34;4995762;28;20034;-73
2021/07/21 00:31:51;;;;;;;32.33;15.20;;;;;;;13.29;84.87;102427.81;4996147;28;20488;-74
2021/07/21 00:34:16;;;;;;;34.20;16.08;;;;;;;13.29;84.98;102430.47;4995987;28;20494;-74
2021/07/21 00:36:41;;;;;;;34.08;16.45;;;;;;;13.28;85.42;102428.75;4995671;28;20042;-73
2021/07/21 00:39:07;;;;;;;31.88;15.93;;;;;;;13.26;85.20;102417.34;4996036;28;20030;-74
2021/07/21 00:41:32;;;;;;;30.55;15.55;;;;;;;13.24;84.59;102428.13;4995627;28;20030;-74
2021/07/21 00:43:57;;;;;;;31.13;16.23;;;;;;;13.21;85.35;102421.22;4996254;28;20040;-73
2021/07/21 00:46:23;;;;;;;30.27;15.05;;;;;;;13.19;85.16;102419.63;4995581;28;20032;-74
2021/07/21 00:48:48;;;;;;;35.85;16.35;;;;;;;13.17;85.16;102424.25;4995896;28;20406;-73
2021/07/21 00:51:16;;;;;;;33.20;15.85;;;;;;;13.14;84.82;102421.81;4995129;28;20049;-73
2021/07/21 00:53:41;;;;;;;31.30;15.45;;;;;;;13.10;85.04;102425.69;4995440;28;20026;-73
2021/07/21 00:56:07;;;;;;;27.63;15.07;;;;;;;13.06;85.14;102425.03;4995976;28;20117;-73
2021/07/21 00:58:32;;;;;;;33.28;16.20;;;;;;;13.03;85.49;102423.47;4993906;28;20105;-73
2021/07/21 01:00:57;;;;;;;31.02;15.20;;;;;;;12.98;85.25;102425.63;4995763;28;20069;-74
2021/07/21 01:03:23;;;;;;;28.70;15.05;;;;;;;12.94;85.58;102418.81;4993707;28;20537;-73
2021/07/21 01:05:49;;;;;;;29.50;14.95;;;;;;;12.91;85.26;102420.88;4995752;28;20065;-73
2021/07/21 01:08:14;;;;;;;35.20;15.52;;;;;;;12.84;84.84;102415.16;4995898;28;20464;-73
2021/07/21 01:10:48;;;;;;;35.78;16.33;;;;;;;12.83;86.01;102416.09;4993854;28;20034;-74
2021/07/21 01:13:23;;;;;;;28.98;15.13;;;;;;;12.77;85.52;102412.06;4995730;28;20031;-74
2021/07/21 01:16:02;;;;;;;32.50;15.73;;;;;;;12.75;85.85;102419.38;4995485;28;20117;-74
2021/07/21 01:18:35;;;;;;;36.22;16.98;;;;;;;12.76;86.92;102421.03;4994723;28;20080;-73
2021/07/21 01:21:27;;;;;;;31.23;15.15;;;;;;;12.75;86.68;102419.38;4995659;28;20038;-74
2021/07/21 01:24:14;;;;;;;30.75;15.07;;;;;;;12.72;86.21;102424.06;4995437;28;20070;-74
2021/07/21 01:27:08;;;;;;;35.08;17.45;;;;;;;12.70;86.91;102418.84;4995072;28;20030;-74
2021/07/21 01:29:35;;;;;;;36.42;16.48;;;;;;;12.67;86.99;102419.06;4983814;28;20065;-74
2021/07/21 01:32:01;;;;;;;29.73;14.80;;;;;;;12.63;86.30;102414.91;4995347;28;20050;-74
2021/07/21 01:34:30;;;;;;;37.05;16.25;;;;;;;12.63;86.87;102409.56;4994623;28;20109;-73
2021/07/21 01:36:58;;;;;;;36.90;16.65;;;;;;;12.62;86.54;102414.06;4995850;28;20085;-73
2021/07/21 01:39:31;;;;;;;32.15;15.57;;;;;;;12.62;86.92;102413.22;4996409;28;20085;-73
2021/07/21 01:42:04;;;;;;;38.40;17.33;;;;;;;12.61;87.35;102415.03;4996948;28;20081;-73
2021/07/21 01:44:32;;;;;;;37.35;17.73;;;;;;;12.61;86.98;102414.19;4995534;28;20112;-73
2021/07/21 01:47:01;;;;;;;42.05;18.83;;;;;;;12.61;87.46;102412.34;4995148;28;20042;-74
2021/07/21 01:49:30;;;;;;;31.55;16.42;;;;;;;12.59;86.95;102421.47;4994620;28;20034;-74
2021/07/21 01:52:03;;;;;;;32.67;15.90;;;;;;;12.59;87.20;102421.47;4996146;28;20034;-74
2021/07/21 01:54:30;;;;;;;36.58;17.17;;;;;;;12.55;86.54;102414.66;4995323;28;20030;-74
2021/07/21 01:56:58;;;;;;;35.40;17.15;;;;;;;12.51;87.01;102414.88;4993500;28;20439;-74
2021/07/21 01:59:25;;;;;;;39.20;18.23;;;;;;;12.50;87.69;102420.34;4994786;28;20057;-74
2021/07/21 02:01:52;;;;;;;38.97;17.20;;;;;;;12.43;86.47;102429.75;4994313;28;20080;-74
2021/07/21 02:04:18;;;;;;;36.47;17.67;;;;;;;12.41;87.31;102427.19;4993156;28;20088;-74
2021/07/21 02:06:44;;;;;;;40.85;18.40;;;;;;;12.42;87.65;102428.03;4994105;28;20483;-74
2021/07/21 02:09:10;;;;;;;44.42;17.98;;;;;;;12.42;87.84;102431.56;4993351;28;20061;-74
2021/07/21 02:11:38;;;;;;;37.80;17.98;;;;;;;12.45;88.23;102427.81;4993896;28;20022;-74
2021/07/21 02:14:05;;;;;;;42.55;17.58;;;;;;;12.45;87.95;102427.81;4994428;28;20035;-75
2021/07/21 02:16:31;;;;;;;40.83;18.17;;;;;;;12.42;87.93;102431.56;4993714;28;20030;-74
2021/07/21 02:18:58;;;;;;;32.50;15.77;;;;;;;12.39;87.52;102430.94;4994281;28;20027;-74
2021/07/21 02:21:24;;;;;;;44.92;20.05;;;;;;;12.38;87.72;102423.91;4994173;28;20076;-74
2021/07/21 02:23:51;;;;;;;37.33;16.67;;;;;;;12.33;87.47;102429.56;4993723;28;20118;-74
2021/07/21 02:26:18;;;;;;;42.70;19.65;;;;;;;12.33;88.26;102433.09;4994141;28;20034;-73
2021/07/21 02:28:44;;;;;;;49.85;19.95;;;;;;;12.33;88.18;102424.22;4993420;28;20041;-74
2021/07/21 02:31:33;;;;;;;38.13;18.83;;;;;;;12.32;88.91;102430.53;4994082;28;20093;-74
2021/07/21 02:34:04;;;;;;;40.33;18.80;;;;;;;12.32;88.70;102425.19;4992805;28;20046;-74
2021/07/21 02:36:31;;;;;;;39.88;18.10;;;;;;;12.31;88.23;102429.66;4992953;28;20034;-74
2021/07/21 02:38:57;;;;;;;42.03;19.55;;;;;;;12.31;88.42;102426.16;4993795;28;20046;-74
2021/07/21 02:41:23;;;;;;;35.92;17.08;;;;;;;12.26;87.85;102431.84;4993729;28;20553;-74
2021/07/21 02:43:48;;;;;;;40.78;19.60;;;;;;;12.23;88.16;102429.38;4993100;28;20113;-73
2021/07/21 02:46:13;;;;;;;36.55;18.05;;;;;;;12.22;88.40;102429.50;4993641;28;20366;-74
2021/07/21 02:48:43;;;;;;;35.20;16.27;;;;;;;12.16;87.42;102428.97;4993270;28;20493;-74
2021/07/21 02:51:16;;;;;;;39.58;19.45;;;;;;;12.13;87.89;102429.19;4993905;28;20041;-74
2021/07/21 02:53:49;;;;;;;40.90;20.08;;;;;;;12.14;88.68;102428.22;4993035;28;20068;-73
2021/07/21 02:56:17;;;;;;;40.40;17.73;;;;;;;12.10;88.16;102434.75;4993816;28;20149;-73
2021/07/21 02:58:57;;;;;;;36.83;18.00;;;;;;;12.08;88.44;102441.19;4992892;28;20030;-73
2021/07/21 03:01:23;;;;;;;47.63;21.08;;;;;;;12.05;88.46;102439.56;4993513;28;20046;-73
2021/07/21 03:03:50;;;;;;;47.45;21.02;;;;;;;12.04;88.87;102442.34;4991319;28;20383;-73
2021/07/21 03:06:17;;;;;;;41.90;19.08;;;;;;;12.03;89.04;102436.13;4993249;28;20038;-73
2021/07/21 03:08:44;;;;;;;50.33;20.92;;;;;;;12.04;89.00;102439.69;4991795;28;20030;-74
2021/07/21 03:11:12;;;;;;;47.88;20.80;;;;;;;12.03;89.36;102441.47;4993525;28;20033;-73
2021/07/21 03:13:49;;;;;;;41.20;19.65;;;;;;;12.02;89.10;102441.59;4992791;28;20184;-73
2021/07/21 03:16:20;;;;;;;39.88;17.95;;;;;;;11.98;88.96;102447.16;4993343;28;20037;-74
2021/07/21 03:18:47;;;;;;;51.78;21.08;;;;;;;11.97;89.19;102449.91;4992550;28;20400;-74
2021/07/21 03:21:15;;;;;;;39.90;17.95;;;;;;;11.92;88.79;102447.56;4993459;28;20100;-74
2021/07/21 03:23:40;;;;;;;39.50;17.77;;;;;;;11.89;88.80;102445.09;4991496;28;20038;-74
2021/07/21 03:26:07;;;;;;;45.88;18.70;;;;;;;11.87;89.02;102443.50;4993283;28;20471;-74
2021/07/21 03:28:33;;;;;;;42.95;18.90;;;;;;;11.87;88.99;102444.38;4991980;28;20030;-74
2021/07/21 03:31:00;;;;;;;52.55;20.25;;;;;;;11.86;88.90;102452.47;4992419;28;20049;-73
2021/07/21 03:33:28;;;;;;;38.53;17.58;;;;;;;11.85;89.33;102448.94;4992802;28;20026;-73
2021/07/21 03:36:00;;;;;;;42.05;18.48;;;;;;;11.83;89.16;102445.53;4991242;28;20035;-73
2021/07/21 03:38:26;;;;;;;51.15;20.50;;;;;;;11.86;89.78;102440.00;4993101;28;20034;-74
2021/07/21 03:40:52;;;;;;;47.22;18.92;;;;;;;11.86;89.76;102441.81;4992361;28;20181;-74
2021/07/21 03:43:19;;;;;;;37.03;18.52;;;;;;;11.80;88.98;102443.09;4991835;28;20118;-73
2021/07/21 03:45:45;;;;;;;48.92;21.17;;;;;;;11.76;88.75;102438.94;4992167;28;20026;-73
2021/07/21 03:48:10;;;;;;;47.42;20.73;;;;;;;11.77;89.62;102446.81;4992731;28;20040;-73
2021/07/21 03:50:36;;;;;;;41.40;18.42;;;;;;;11.77;89.38;102440.63;4992915;28;20030;-73
2021/07/21 03:53:02;;;;;;;46.45;19.63;;;;;;;11.76;89.26;102442.47;4992240;28;20450;-73
2021/07/21 03:55:30;;;;;;;50.08;21.08;;;;;;;11.74;89.08;102444.38;4991491;28;20089;-73
2021/07/21 03:57:56;;;;;;;41.28;18.10;;;;;;;11.75;89.65;102443.41;4992130;28;20045;-73
2021/07/21 04:00:22;;;;;;;50.53;21.67;;;;;;;11.75;89.67;102438.09;4992670;28;20121;-73
2021/07/21 04:02:54;;;;;;;54.45;21.90;;;;;;;11.78;90.01;102437.88;4992039;28;20057;-73
2021/07/21 04:05:23;;;;;;;41.42;19.13;;;;;;;11.78;89.62;102440.53;4992608;28;20054;-73
2021/07/21 04:07:48;;;;;;;39.67;18.63;;;;;;;11.77;89.36;102444.16;4992041;28;20038;-74
2021/07/21 04:10:14;;;;;;;52.13;22.15;;;;;;;11.77;89.23;102443.31;4992877;28;20065;-74
2021/07/21 04:12:44;;;;;;;46.00;20.73;;;;;;;11.77;89.91;102441.47;4992764;28;20491;-74
2021/07/21 04:15:11;;;;;;;51.67;22.52;;;;;;;11.84;90.27;102449.91;4992522;28;20456;-74
2021/07/21 04:17:37;;;;;;;63.78;25.08;;;;;;;11.88;90.37;102443.38;4992830;28;20041;-74
2021/07/21 04:20:06;;;;;;;53.60;22.67;;;;;;;11.94;90.62;102434.13;5007162;28;20077;-76
2021/07/21 04:22:33;;;;;;;45.90;20.40;;;;;;;11.94;90.24;102440.34;4991248;28;20108;-74
2021/07/21 04:25:00;;;;;;;51.30;21.95;;;;;;;11.93;89.53;102438.63;4991956;28;20043;-74
2021/07/21 04:27:27;;;;;;;54.40;21.38;;;;;;;11.94;89.53;102448.34;4992531;28;20445;-74
2021/07/21 04:29:54;;;;;;;46.58;22.02;;;;;;;11.96;89.71;102446.41;4991844;28;20031;-73
2021/07/21 04:32:23;;;;;;;49.50;20.75;;;;;;;11.97;89.59;102448.13;4992465;28;20381;-74
2021/07/21 04:34:50;;;;;;;49.88;21.08;;;;;;;12.00;89.62;102449.69;4991888;28;20466;-74
2021/07/21 04:37:17;;;;;;;45.97;18.63;;;;;;;12.02;89.48;102444.25;4992660;28;20101;-75
2021/07/21 04:39:44;;;;;;;55.20;23.88;;;;;;;12.07;89.80;102452.81;4991070;28;20065;-74
2021/07/21 04:42:11;;;;;;;55.00;23.17;;;;;;;12.12;90.11;102456.84;4992271;28;20041;-74
2021/07/21 04:44:37;;;;;;;61.20;25.40;;;;;;;12.20;90.50;102450.13;4992617;28;20038;-72
2021/07/21 04:47:04;;;;;;;60.17;24.88;;;;;;;12.26;90.65;102455.84;4991721;28;20030;-74
2021/07/21 04:49:32;;;;;;;52.60;21.60;;;;;;;12.27;90.28;102454.91;4992134;28;20038;-74
2021/07/21 04:52:03;;;;;;;54.03;21.83;;;;;;;12.30;89.86;102460.00;4991846;28;20152;-74
2021/07/21 04:54:29;;;;;;;;;;;;;;;12.33;89.45;102469.59;4991448;28;20034;-73
2021/07/21 04:56:58;;;;;;;55.90;22.73;;;;;;;12.39;89.84;102466.50;5007788;28;20413;-72
2021/07/21 04:59:23;;;;;;;52.47;24.33;;;;;;;12.47;89.98;102471.28;4999526;28;20022;-73
2021/07/21 05:01:49;;;;;;;52.00;21.48;;;;;;;12.52;89.87;102474.44;5008072;28;20057;-72
2021/07/21 05:04:16;;;;;;;48.53;21.40;;;;;;;12.59;89.89;102474.88;4990778;28;20434;-71
2021/07/21 05:06:45;;;;;;;46.45;21.63;;;;;;;12.63;89.81;102474.53;4990659;28;20061;-70
2021/07/21 05:09:11;;;;;;;47.60;21.35;;;;;;;12.72;89.36;102483.69;4991297;28;20062;-72
2021/07/21 05:11:37;;;;;;;46.55;21.25;;;;;;;12.77;89.66;102486.84;4992432;28;20042;-72
2021/07/21 05:14:03;;;;;;;45.30;20.10;;;;;;;12.80;89.04;102478.63;4991507;28;20034;-71
2021/07/21 05:16:30;;;;;;;42.08;20.10;;;;;;;12.87;89.26;102489.72;4991247;28;20441;-72
2021/07/21 05:18:55;;;;;;;47.85;20.30;;;;;;;12.94;88.89;102487.44;4992104;28;20422;-71
2021/07/21 05:21:21;;;;;;;42.10;20.55;;;;;;;13.01;89.16;102486.84;4992806;28;20030;-72
2021/07/21 05:23:46;;;;;;;48.50;20.20;;;;;;;13.08;89.41;102489.06;4992514;28;20034;-71
2021/07/21 05:26:12;;;;;;;45.72;20.05;;;;;;;13.15;88.84;102490.31;4991880;28;20078;-71
2021/07/21 05:28:39;;;;;;;51.22;21.35;;;;;;;13.21;88.86;102492.50;4992235;28;20058;-71
2021/07/21 05:31:05;;;;;;;47.97;21.38;;;;;;;13.28;88.87;102493.75;4992014;28;20113;-70
2021/07/21 05:33:31;;;;;;;49.53;21.20;;;;;;;13.33;88.88;102494.28;4993133;28;20035;-72
2021/07/21 05:35:57;;;;;;;50.63;23.27;;;;;;;13.39;88.88;102498.31;4991539;28;20061;-72
2021/07/21 05:38:23;;;;;;;52.95;23.00;;;;;;;13.47;88.56;102501.25;4992846;28;20438;-72
2021/07/21 05:40:48;;;;;;;51.08;22.20;;;;;;;13.56;88.39;102500.53;4991792;28;20070;-72
2021/07/21 05:43:13;;;;;;;44.03;21.35;;;;;;;13.64;88.39;102497.28;4991551;28;20479;-71
2021/07/21 05:45:39;;;;;;;42.45;21.42;;;;;;;13.71;88.03;102498.50;4992276;28;20419;-69
2021/07/21 05:48:05;;;;;;;43.53;20.60;;;;;;;13.82;88.51;102507.53;4991549;28;20469;-71
2021/07/21 05:50:30;;;;;;;50.42;21.35;;;;;;;13.91;88.11;102504.13;4991884;28;20109;-71
2021/07/21 05:52:57;;;;;;;39.65;20.80;;;;;;;13.98;87.92;102500.00;4991019;28;20557;-70
2021/07/21 05:55:22;;;;;;;42.88;21.02;;;;;;;14.11;88.04;102503.41;4991937;28;20030;-72
2021/07/21 05:57:48;;;;;;;44.60;21.05;;;;;;;14.25;87.07;102506.81;4992646;28;20045;-71
2021/07/21 06:00:14;;;;;;;36.92;19.88;;;;;;;14.37;86.41;102505.81;4991596;28;20042;-72
2021/07/21 06:02:40;;;;;;;38.60;19.23;;;;;;;14.49;85.66;102503.97;4991648;28;20111;-72
2021/07/21 06:05:06;;;;;;;33.90;19.20;;;;;;;14.62;85.62;102503.88;4990826;28;20065;-72
2021/07/21 06:07:32;;;;;;;35.83;17.98;;;;;;;14.77;85.18;102513.31;4991458;28;20164;-71
2021/07/21 06:09:57;;;;;;;37.95;20.30;;;;;;;14.95;85.08;102513.63;4990345;28;20118;-71
2021/07/21 06:12:22;;;;;;;32.00;18.70;;;;;;;15.07;84.39;102509.09;4990291;28;20045;-73
2021/07/21 06:14:48;;;;;;;31.08;17.77;;;;;;;15.25;83.34;102509.38;4991462;28;20086;-73
2021/07/21 06:17:14;;;;;;;35.30;17.83;;;;;;;15.41;82.65;102516.97;4991012;28;20117;-73
2021/07/21 06:19:40;;;;;;;30.75;17.35;;;;;;;15.56;82.07;102511.31;4991913;28;20088;-72
2021/07/21 06:22:06;;;;;;;29.45;17.35;;;;;;;15.74;81.46;102516.91;4991399;28;20034;-73
2021/07/21 06:24:33;;;;;;;31.65;18.83;;;;;;;15.88;82.09;102516.59;4991466;28;20480;-73
2021/07/21 06:26:59;;;;;;;35.28;18.58;;;;;;;16.00;81.22;102525.41;4991256;28;20100;-72
2021/07/21 06:29:25;;;;;;;31.67;18.40;;;;;;;16.17;80.26;102526.63;4991346;28;20034;-74
2021/07/21 06:31:50;;;;;;;28.63;16.60;;;;;;;16.33;80.27;102529.66;4992054;28;20371;-74
2021/07/21 06:34:16;;;;;;;30.02;17.92;;;;;;;16.46;78.52;102526.72;4990641;28;20035;-74
2021/07/21 06:36:41;;;;;;;27.83;17.17;;;;;;;16.62;78.36;102528.88;4991128;28;20034;-72
2021/07/21 06:39:07;;;;;;;31.90;18.50;;;;;;;16.77;78.21;102528.50;4990462;28;20040;-73
2021/07/21 06:41:32;;;;;;;28.67;16.92;;;;;;;16.94;75.57;102535.91;4990129;28;20058;-73
2021/07/21 06:44:00;;;;;;;28.77;16.42;;;;;;;17.04;74.79;102538.59;4990977;28;20030;-74
2021/07/21 06:46:26;;;;;;;30.75;16.75;;;;;;;17.18;77.03;102540.03;4991302;28;20049;-71
2021/07/21 06:48:53;;;;;;;26.95;15.88;;;;;;;17.32;70.36;102542.28;4991204;28;20069;-71
2021/07/21 06:51:22;;;;;;;27.50;17.05;;;;;;;17.44;72.18;102545.69;4990012;28;20038;-72
2021/07/21 06:53:48;;;;;;;28.33;16.55;;;;;;;17.54;71.67;102542.97;4990399;28;20402;-72
2021/07/21 06:56:15;;;;;;;29.50;17.75;;;;;;;17.71;70.99;102549.47;4988944;28;20402;-71
2021/07/21 06:58:40;;;;;;;30.35;17.25;;;;;;;17.81;69.09;102550.31;4990656;28;20137;-71
2021/07/21 07:01:06;;;;;;;32.28;16.25;;;;;;;18.01;69.17;102552.97;4989679;28;20117;-71
2021/07/21 07:03:32;;;;;;;29.63;16.55;;;;;;;18.17;66.50;102555.91;4990471;28;20501;-71
2021/07/21 07:05:58;;;;;;;24.67;16.42;;;;;;;18.24;66.69;102550.75;4989628;28;20149;-72
2021/07/21 07:08:24;;;;;;;22.60;14.80;;;;;;;18.37;67.12;102563.91;4989405;28;20038;-71
2021/07/21 07:10:49;;;;;;;25.85;15.70;;;;;;;18.56;66.88;102552.19;4990405;28;20462;-71
2021/07/21 07:13:14;;;;;;;25.65;15.57;;;;;;;18.70;65.26;102556.19;4991691;28;20052;-71
2021/07/21 07:15:40;;;;;;;23.45;15.35;;;;;;;18.87;64.40;102554.56;4993038;28;20077;-71
2021/07/21 07:18:06;;;;;;;24.13;14.95;;;;;;;19.00;63.51;102555.03;4992244;28;20470;-73
2021/07/21 07:20:32;;;;;;;26.15;15.55;;;;;;;19.23;64.13;102559.97;4992351;28;20038;-71
2021/07/21 07:22:58;;;;;;;19.63;14.15;;;;;;;19.31;62.05;102562.75;4993024;28;20081;-70
2021/07/21 07:25:24;;;;;;;25.85;15.43;;;;;;;19.44;62.30;102571.28;4992209;28;20038;-71
2021/07/21 07:27:49;;;;;;;23.10;15.13;;;;;;;19.54;61.72;102568.50;4992899;28;20037;-72
2021/07/21 07:30:14;;;;;;;29.75;16.20;;;;;;;19.60;60.50;102573.28;4991685;28;20049;-73
2021/07/21 07:32:41;;;;;;;25.80;15.85;;;;;;;19.69;61.34;102574.16;4992928;28;20065;-72
2021/07/21 07:35:06;;;;;;;26.38;14.95;;;;;;;19.81;61.03;102572.09;4992159;28;20073;-72
2021/07/21 07:37:32;;;;;;;28.77;14.50;;;;;;;20.02;59.33;102572.59;4992792;28;20061;-74
2021/07/21 07:39:57;;;;;;;23.92;14.90;;;;;;;20.20;59.16;102568.97;4991626;28;20037;-72
2021/07/21 07:42:23;;;;;;;23.88;15.02;;;;;;;20.33;59.11;102565.81;4992483;28;20058;-72
2021/07/21 07:44:48;;;;;;;24.77;15.40;;;;;;;20.30;58.54;102577.78;4992907;28;20040;-72
2021/07/21 07:47:14;;;;;;;22.85;14.55;;;;;;;20.44;60.00;102568.25;4992292;28;20036;-73
2021/07/21 07:49:40;;;;;;;24.95;14.60;;;;;;;20.66;57.56;102572.25;4992900;28;20129;-73
2021/07/21 07:52:06;;;;;;;22.38;13.52;;;;;;;20.76;59.09;102570.22;4992731;28;20081;-73
2021/07/21 07:54:32;;;;;;;23.20;13.60;;;;;;;20.92;58.70;102569.41;4993273;28;20035;-72
2021/07/21 07:56:57;;;;;;;22.23;13.95;;;;;;;21.09;57.89;102566.75;4992849;28;20038;-72
2021/07/21 07:59:23;;;;;;;23.77;13.93;;;;;;;21.17;56.47;102565.91;4992386;28;20072;-72
2021/07/21 08:01:48;;;;;;;20.27;12.63;;;;;;;21.40;56.60;102571.50;4992818;28;20046;-72
2021/07/21 08:04:13;;;;;;;20.08;13.40;;;;;;;21.58;54.68;102571.38;4991772;28;20364;-71
2021/07/21 08:06:39;;;;;;;18.52;12.10;;;;;;;21.71;55.34;102565.44;4991265;28;20051;-71
2021/07/21 08:09:12;;;;;;;22.35;12.40;;;;;;;21.89;53.88;102567.94;4992623;28;20057;-72
2021/07/21 08:11:48;;;;;;;23.48;12.65;;;;;;;21.96;52.74;102568.94;4992816;28;20042;-72
2021/07/21 08:14:14;;;;;;;21.33;12.88;;;;;;;21.94;54.47;102569.09;4991420;28;20168;-72
2021/07/21 08:16:40;;;;;;;20.92;12.50;;;;;;;22.08;54.44;102567.56;4992619;28;20103;-72
2021/07/21 08:19:05;;;;;;;22.00;12.95;;;;;;;22.22;51.53;102565.16;4991286;28;20518;-73
2021/07/21 08:21:30;;;;;;;19.30;12.07;;;;;;;22.32;53.63;102571.25;4991830;28;20038;-73
2021/07/21 08:23:56;;;;;;;24.88;13.13;;;;;;;22.46;53.39;102569.66;4992611;28;20121;-72
2021/07/21 08:26:21;;;;;;;17.15;11.43;;;;;;;22.65;52.09;102565.69;4992081;28;20041;-72
2021/07/21 08:28:47;;;;;;;21.08;12.65;;;;;;;22.82;50.30;102569.97;4992903;28;20037;-73
2021/07/21 08:31:12;;;;;;;17.10;11.02;;;;;;;23.00;51.77;102564.25;4990589;28;20034;-74
2021/07/21 08:33:37;;;;;;;21.33;12.13;;;;;;;23.16;50.81;102566.03;4996146;28;20185;-74
2021/07/21 08:36:04;;;;;;;24.75;11.25;;;;;;;23.42;51.37;102567.53;4996324;28;20038;-73
2021/07/21 08:38:29;;;;;;;22.80;11.52;;;;;;;23.58;49.53;102569.25;4995418;28;20049;-74
2021/07/21 08:40:56;;;;;;;18.15;11.13;;;;;;;23.69;48.59;102576.97;4996123;28;20034;-74
2021/07/21 08:43:21;;;;;;;17.98;12.23;;;;;;;23.74;45.65;102573.69;4994239;28;20505;-76
2021/07/21 08:45:47;;;;;;;18.98;11.25;;;;;;;23.90;47.76;102573.56;4996030;28;20030;-75
2021/07/21 08:48:13;;;;;;;20.75;10.90;;;;;;;24.45;46.01;102567.81;4995921;28;20058;-76
2021/07/21 08:50:43;;;;;;;18.00;11.10;;;;;;;24.74;43.95;102566.13;4995585;28;20069;-75
2021/07/21 08:53:08;;;;;;;26.23;10.57;;;;;;;25.07;43.21;102571.06;4995797;28;20394;-76
2021/07/21 08:55:34;;;;;;;19.00;10.15;;;;;;;25.46;40.50;102578.78;4995287;28;20182;-75
2021/07/21 08:58:00;;;;;;;14.80;10.55;;;;;;;25.82;40.58;102574.25;4995803;28;20053;-75
2021/07/21 09:00:25;;;;;;;19.08;9.77;;;;;;;26.64;40.31;102578.03;4995118;28;20386;-75
2021/07/21 09:02:51;;;;;;;21.08;10.95;;;;;;;26.67;40.14;102579.56;4995655;28;20034;-75
2021/07/21 09:05:17;;;;;;;16.08;9.63;;;;;;;27.50;36.52;102578.44;4993919;28;20053;-77
2021/07/21 09:07:44;;;;;;;18.70;9.95;;;;;;;27.70;36.72;102579.28;4996055;28;20074;-75
2021/07/21 09:10:12;;;;;;;17.20;10.50;;;;;;;28.37;35.22;102575.56;4994528;28;20088;-75
2021/07/21 09:12:39;;;;;;;20.13;10.38;;;;;;;28.78;34.79;102577.06;5010002;28;20027;-75
2021/07/21 09:15:07;;;;;;;14.35;8.80;;;;;;;29.19;34.20;102576.56;4995529;28;20041;-76
2021/07/21 09:17:33;;;;;;;19.25;10.63;;;;;;;29.41;30.94;102572.63;4994900;28;20042;-75
2021/07/21 09:19:58;;;;;;;19.65;9.88;;;;;;;29.61;30.54;102573.31;4995570;28;20390;-74
2021/07/21 09:22:25;;;;;;;18.42;8.95;;;;;;;29.86;32.89;102572.47;4994996;28;20398;-75
2021/07/21 09:25:10;;;;;;;14.80;8.70;;;;;;;30.01;33.74;102581.16;4995629;28;20534;-75
2021/07/21 09:27:37;;;;;;;14.55;9.18;;;;;;;30.26;31.54;102580.22;4994649;28;20066;-75
2021/07/21 09:30:04;;;;;;;17.67;8.68;;;;;;;30.34;31.03;102573.59;4995504;28;20041;-76
2021/07/21 09:32:29;;;;;;;15.10;9.15;;;;;;;30.64;30.93;102579.16;4993432;28;20042;-75
2021/07/21 09:34:55;;;;;;;11.23;7.85;;;;;;;30.92;30.93;102583.19;4993879;28;20502;-75
2021/07/21 09:37:21;;;;;;;14.85;9.05;;;;;;;31.00;29.07;102582.06;4994574;28;20475;-75
2021/07/21 09:39:50;;;;;;;18.25;9.48;;;;;;;31.21;26.95;102572.41;4995071;28;20038;-77
2021/07/21 09:42:26;;;;;;;15.43;9.95;;;;;;;31.23;28.01;102582.09;4994754;28;20056;-75
2021/07/21 09:44:52;;;;;;;14.60;9.18;;;;;;;30.82;29.46;102580.19;4993634;28;20103;-75
2021/07/21 09:47:22;;;;;;;14.00;9.93;;;;;;;30.33;30.72;102571.91;4995228;28;20026;-76
2021/07/21 09:49:49;;;;;;;11.27;8.45;;;;;;;30.64;31.22;102567.34;4995130;28;20053;-76
2021/07/21 09:52:14;;;;;;;12.25;9.20;;;;;;;30.68;29.60;102576.75;4995275;28;20042;-77
2021/07/21 09:54:40;;;;;;;12.18;8.68;;;;;;;31.03;29.95;102570.59;4994215;28;20033;-77
2021/07/21 09:57:12;;;;;;;11.18;7.88;;;;;;;31.48;29.77;102564.53;4994695;28;20037;-78
2021/07/21 09:59:38;;;;;;;11.43;9.18;;;;;;;31.19;27.49;102567.16;4994243;28;20026;-77
2021/07/21 10:02:18;;;;;;;14.10;9.07;;;;;;;31.45;29.12;102565.00;4994663;28;20457;-78
2021/07/21 10:04:46;;;;;;;13.20;8.98;;;;;;;31.77;28.11;102570.16;4994048;28;20148;-77
2021/07/21 10:09:40;;;;;;;18.17;8.98;;;;;;;31.94;27.95;102573.03;4994235;28;20038;-79
2021/07/21 10:12:16;;;;;;;14.95;9.30;;;;;;;31.77;28.04;102571.03;4994696;28;20041;-77
2021/07/21 10:14:56;;;;;;;14.18;9.80;;;;;;;31.53;28.88;102566.56;4994082;28;20112;-78
2021/07/21 10:17:21;;;;;;;14.95;10.07;;;;;;;31.39;27.97;102572.28;4994747;28;20026;-77
2021/07/21 10:19:47;;;;;;;15.07;8.65;;;;;;;31.68;29.55;102582.63;4994058;28;20042;-77
2021/07/21 10:22:13;;;;;;;14.20;8.90;;;;;;;32.24;27.65;102574.81;4994163;28;20398;-77
2021/07/21 10:24:39;;;;;;;13.65;8.73;;;;;;;32.31;26.69;102570.81;4993957;28;20125;-78
2021/07/21 10:27:05;;;;;;;15.32;9.00;;;;;;;31.84;28.20;102568.13;4994722;28;20069;-77
2021/07/21 10:29:31;;;;;;;13.00;9.48;;;;;;;32.09;26.91;102567.84;4993731;28;20062;-78
2021/07/21 10:31:56;;;;;;;16.83;9.60;;;;;;;31.64;27.32;102565.78;4994169;28;20058;-78
2021/07/21 10:34:24;;;;;;;11.95;8.45;;;;;;;31.95;28.71;102564.53;4994322;28;20541;-77
2021/07/21 10:36:51;;;;;;;14.23;8.93;;;;;;;32.00;29.70;102567.38;4993513;28;20034;-77
2021/07/21 10:39:19;;;;;;;14.23;9.38;;;;;;;32.15;28.59;102558.66;4992881;28;20030;-77
2021/07/21 10:41:46;;;;;;;10.80;8.65;;;;;;;32.65;28.30;102568.19;4993426;28;20109;-75
2021/07/21 10:44:14;;;;;;;16.13;10.13;;;;;;;32.65;26.00;102559.06;4993923;28;20034;-75
2021/07/21 10:46:42;;;;;;;15.02;9.57;;;;;;;32.47;28.16;102560.09;4989970;28;20547;-74
2021/07/21 10:49:52;;;;;;;16.77;10.48;;;;;;;32.45;28.67;102557.59;4989562;28;20037;-73
2021/07/21 10:52:43;;;;;;;16.17;10.15;;;;;;;32.35;30.10;102551.88;4988261;28;20038;-77
2021/07/21 10:55:25;;;;;;;13.13;9.85;;;;;;;32.12;29.34;102553.63;4990528;28;20038;-73
2021/07/21 11:00:50;;;;;;;22.10;10.45;;;;;;;31.52;30.67;102548.41;4990184;28;20048;-74
2021/07/21 11:03:20;;;;;;;15.52;11.30;;;;;;;30.74;31.20;102551.13;4990781;28;20508;-76
2021/07/21 11:05:56;;;;;;;15.98;10.95;;;;;;;30.52;31.46;102550.81;4990194;28;20488;-75
2021/07/21 11:08:23;;;;;;;15.35;10.20;;;;;;;30.42;32.41;102556.84;4990784;28;20134;-74
2021/07/21 11:10:53;;;;;;;23.05;10.77;;;;;;;30.62;32.05;102555.72;4989924;28;20441;-76
2021/07/21 11:13:28;;;;;;;15.52;10.68;;;;;;;30.64;31.35;102559.09;4990721;28;20101;-75
2021/07/21 11:15:54;;;;;;;17.25;11.68;;;;;;;30.77;30.29;102556.16;4989690;28;20384;-75
2021/07/21 11:18:22;;;;;;;15.55;10.32;;;;;;;30.88;30.89;102549.84;4990810;28;20113;-73
2021/07/21 11:20:57;;;;;;;19.35;11.32;;;;;;;31.21;30.38;102548.50;4990080;28;20113;-74
2021/07/21 11:23:53;;;;;;;17.30;11.05;;;;;;;31.12;31.28;102548.00;4989919;28;20061;-74
2021/07/21 11:26:31;;;;;;;16.55;9.95;;;;;;;31.40;29.78;102540.97;4990593;28;20057;-75